Lake Park, FL (33403)

11:26 AM EDT on September 02, 2015 (GMT -0400)
Rybovich Boat Company | | Change Station
CLOSE
Current Station
Personal Weather Station
Location: West Palm Beach, FL
Elevation: 10 ft
Nearby Weather Stations

Elev 10 ft 26.75 °N, 80.05 °W | Updated 55 seconds ago

Mostly Cloudy
Mostly Cloudy
87.4 °F
Feels Like 100 °F
N
3.5
Wind Variable Wind from ESE
Gusts 10.0 mph

Today
High -- | Low -- °F
--% Chance of Precip.
Yesterday
High -- | Low -- °F
Precip. -- in
7:00 AM 7:39 PM
Waning Gibbous, 79% visible
Pressure 30.11 in
Visibility 10.0 miles
Clouds Mostly Cloudy 2500 ft
Mostly Cloudy 3700 ft
Mostly Cloudy 5000 ft
Heat Index 100 °F
Dew Point 77 °F
Humidity 73%
Rainfall 0.00 in
Snow Depth Not available.
UV 6 out of 12
Pollen 4.70 out of 12
Air Quality Not available.
Flu Activity Not available.
SPECI KPBI 021507Z 21011KT 10SM TS BKN025CB BKN037 BKN050 29/23 A3011 RMK AO2 TSB06 OCNL LTGICCG OHD-SW-W TS OHD-SW-W MOV N T02890233 $
Pressure 30.11 in
Visibility 10.0 miles
Clouds Mostly Cloudy 2500 ft
Mostly Cloudy 3700 ft
Mostly Cloudy 5000 ft
Heat Index 100 °F
Dew Point 77 °F
Humidity 73%
Rainfall 0.00 in
Snow Depth Not available.
UV 6 out of 12
Pollen 4.70 out of 12
Air Quality Not available.
Flu Activity Not available.
SPECI KPBI 021507Z 21011KT 10SM TS BKN025CB BKN037 BKN050 29/23 A3011 RMK AO2 TSB06 OCNL LTGICCG OHD-SW-W TS OHD-SW-W MOV N T02890233 $

10-Day Weather Forecast

×

Almanac

Astronomy

Sep. 02, 2015 Rise Set
Actual Time
Civil Twilight
Nautical Twilight
Astronomical Twilight
Moon
Length of Visible Light
Length of Day
Tomorrow will be .
, % of the Moon is Illuminated

Today's Extremes

State Highs State Lows

Community

WunderPhotos

Upload Photos

1,851,770 photos uploaded!

WunderBlogs® & News

Nearby

Air Quality

  Air Quality AQ Index Pollutant
Not available.

Snow Depth

Station Depth Elevation

Earthquake Activity

City Distance Mag. Time & Date
Minimum magnitude displayed is 2.5.

Coastal Water Temperatures

Place Temperature

Stations

Nearby Weather Stations

Station Location Temp. Windchill Dew Point Humidity Wind Precip. Elev Updated Type